Taft Beach — WBQ9253 — position and weather

sailwx.info

Track history (hours):
 
Tides and Currents Weather Stations Pressure Air Temp Water Temp Dewpoint Dewpoint Depression Visibility Wind Speed Wind Dir Waves Ship Positions

Taft Beach

Owner: DOUGLAS MARINE INC, CHESAPEAKE, VA. More information available from US FCC via Universal Licensing System and Coast Guard Vessel Documentation Center.

Last reported at 2018-Jan-21 16:51 UTC. Time now 2018-Jan-21 18:21 UTC.
Position N 36°50' W 076°16'.

; draft 0.31 m.

Type: Tug. MMSI: 367016410.

Date/timePositionNaut miles runAvg speedWind from/ knotsBaromVisibWave heightAir tempDewpointWater temp
2018-Jan-21 16:51N 36°50' W 076°16'0 0.0
2018-Jan-21 16:21N 36°50' W 076°16'0 0.1
2018-Jan-21 15:18N 36°50' W 076°16'0 0.0
2018-Jan-21 14:42N 36°50' W 076°16'0 0.0
2018-Jan-21 14:30N 36°50' W 076°16'0 0.0
2018-Jan-21 14:00N 36°50' W 076°16'0 0.0
2018-Jan-21 13:29N 36°50' W 076°16'0 0.0
2018-Jan-21 12:25N 36°50' W 076°16'0 0.0
2018-Jan-21 11:59N 36°50' W 076°16'0 0.0
2018-Jan-21 11:28N 36°50' W 076°16'0 0.0
2018-Jan-21 11:00N 36°50' W 076°16'0 0.0
2018-Jan-21 10:30N 36°50' W 076°16'0 0.0
2018-Jan-21 10:00N 36°50' W 076°16'0 0.0
2018-Jan-21 09:30N 36°50' W 076°16'0 0.0
2018-Jan-21 09:00N 36°50' W 076°16'0 0.0
2018-Jan-21 08:30N 36°50' W 076°16'0 0.0
2018-Jan-21 07:59N 36°50' W 076°16'0 0.0
2018-Jan-21 07:30N 36°50' W 076°16'0 0.0
2018-Jan-21 07:00N 36°50' W 076°16'0 0.0
2018-Jan-21 06:31N 36°50' W 076°16'0 0.0
2018-Jan-21 06:00N 36°50' W 076°16'0 0.0
2018-Jan-21 05:30N 36°50' W 076°16'0 0.0
2018-Jan-21 04:59N 36°50' W 076°16'0 0.0
2018-Jan-21 04:31N 36°50' W 076°16'0 0.0
2018-Jan-21 04:00N 36°50' W 076°16'0 0.0
2018-Jan-21 03:22N 36°50' W 076°16'0 0.0
2018-Jan-21 02:52N 36°50' W 076°16'0 0.0
2018-Jan-21 02:24N 36°50' W 076°16'0 0.0
2018-Jan-21 02:00N 36°50' W 076°16'0 0.0
2018-Jan-20 15:01N 36°50' W 076°16'0 0.1
2018-Jan-20 14:57N 36°50' W 076°16'0 0.0
2018-Jan-20 13:40N 36°50' W 076°16'0 0.1
2018-Jan-20 13:29N 36°50' W 076°16'0 0.0
2018-Jan-20 11:42N 36°50' W 076°16'0 1.3
2018-Jan-20 11:30N 36°50' W 076°16'0 0.6
2018-Jan-20 11:00N 36°50' W 076°17'2 3.3
2018-Jan-20 10:30N 36°51' W 076°19'2 0.0
2018-Jan-19 01:17N 36°52' W 076°20'2 5.8
2018-Jan-19 01:00N 36°51' W 076°19'2 3.9
2018-Jan-19 00:26N 36°50' W 076°16'0 0.1
2018-Jan-18 23:42N 36°50' W 076°16'1 5.0
2018-Jan-18 23:30N 36°51' W 076°17'3 0.8
2018-Jan-18 19:56N 36°53' W 076°20'3 7.0
2018-Jan-18 19:29N 36°50' W 076°17'1 1.2
2018-Jan-18 18:58N 36°50' W 076°16'0 0.0
2018-Jan-18 18:30N 36°50' W 076°16'0 0.0
2018-Jan-18 17:57N 36°50' W 076°16'0 0.0
2018-Jan-18 16:50N 36°50' W 076°16'0 0.0
2018-Jan-18 16:13N 36°50' W 076°16'0 0.0
2018-Jan-18 15:12N 36°50' W 076°16'0 0.0
2018-Jan-18 14:54N 36°50' W 076°16'0 0.2
2018-Jan-18 14:29N 36°50' W 076°16'1 2.5
2018-Jan-18 14:01N 36°51' W 076°18'  
2018-Jan-12 14:59N 40°39' W 074°02'5 6.8
2018-Jan-12 14:18N 40°39' W 074°09'2 6.3
2018-Jan-12 14:00N 40°40' W 074°08'1 1.5
2018-Jan-12 13:30N 40°41' W 074°08'0 0.0
2018-Jan-12 12:59N 40°41' W 074°08'0 0.0
2018-Jan-12 12:30N 40°41' W 074°08'0 0.0
2018-Jan-12 12:01N 40°41' W 074°08'0 0.0
2018-Jan-12 11:30N 40°41' W 074°08'0 0.0
2018-Jan-12 11:00N 40°41' W 074°08'0 0.0
2018-Jan-12 10:30N 40°41' W 074°08'0 0.0
2018-Jan-12 10:00N 40°41' W 074°08'0 0.0
2018-Jan-12 09:30N 40°41' W 074°08'0 0.0
2018-Jan-12 09:00N 40°41' W 074°08'0 0.0
2018-Jan-12 08:30N 40°41' W 074°08'0 0.0
2018-Jan-12 08:00N 40°41' W 074°08'0 0.0
2018-Jan-12 07:30N 40°41' W 074°08'0 0.0
2018-Jan-12 07:00N 40°41' W 074°08'0 0.0
2018-Jan-12 06:30N 40°41' W 074°08'0 0.0
2018-Jan-12 06:00N 40°41' W 074°08'0 0.0
2018-Jan-12 05:30N 40°41' W 074°08'0 0.0
2018-Jan-12 04:59N 40°41' W 074°08'0 0.0
2018-Jan-12 04:30N 40°41' W 074°08'0 0.0
2018-Jan-12 04:00N 40°41' W 074°08'0 0.0
2018-Jan-12 03:30N 40°41' W 074°08'0 0.0
2018-Jan-12 03:00N 40°41' W 074°08'0 0.0
2018-Jan-12 02:30N 40°41' W 074°08'  
Track history (hours):
 
Tides and Currents Weather Stations Pressure Air Temp Water Temp Dewpoint Dewpoint Depression Visibility Wind Speed Wind Dir Waves Ship Positions

Taft Beach

Owner: DOUGLAS MARINE INC, CHESAPEAKE, VA. More information available from US FCC via Universal Licensing System and Coast Guard Vessel Documentation Center.

Last reported at 2018-Jan-21 16:51 UTC. Time now 2018-Jan-21 18:21 UTC.
Position N 36°50' W 076°16'.

; draft 0.31 m.

Type: Tug. MMSI: 367016410.

Date/timePositionNaut miles runAvg speedWind from/ knotsBaromVisibWave heightAir tempDewpointWater temp
2018-Jan-21 16:51N 36°50' W 076°16'0 0.0
2018-Jan-21 16:21N 36°50' W 076°16'0 0.1
2018-Jan-21 15:18N 36°50' W 076°16'0 0.0
2018-Jan-21 14:42N 36°50' W 076°16'0 0.0
2018-Jan-21 14:30N 36°50' W 076°16'0 0.0
2018-Jan-21 14:00N 36°50' W 076°16'0 0.0
2018-Jan-21 13:29N 36°50' W 076°16'0 0.0
2018-Jan-21 12:25N 36°50' W 076°16'0 0.0
2018-Jan-21 11:59N 36°50' W 076°16'0 0.0
2018-Jan-21 11:28N 36°50' W 076°16'0 0.0
2018-Jan-21 11:00N 36°50' W 076°16'0 0.0
2018-Jan-21 10:30N 36°50' W 076°16'0 0.0
2018-Jan-21 10:00N 36°50' W 076°16'0 0.0
2018-Jan-21 09:30N 36°50' W 076°16'0 0.0
2018-Jan-21 09:00N 36°50' W 076°16'0 0.0
2018-Jan-21 08:30N 36°50' W 076°16'0 0.0
2018-Jan-21 07:59N 36°50' W 076°16'0 0.0
2018-Jan-21 07:30N 36°50' W 076°16'0 0.0
2018-Jan-21 07:00N 36°50' W 076°16'0 0.0
2018-Jan-21 06:31N 36°50' W 076°16'0 0.0
2018-Jan-21 06:00N 36°50' W 076°16'0 0.0
2018-Jan-21 05:30N 36°50' W 076°16'0 0.0
2018-Jan-21 04:59N 36°50' W 076°16'0 0.0
2018-Jan-21 04:31N 36°50' W 076°16'0 0.0
2018-Jan-21 04:00N 36°50' W 076°16'0 0.0
2018-Jan-21 03:22N 36°50' W 076°16'0 0.0
2018-Jan-21 02:52N 36°50' W 076°16'0 0.0
2018-Jan-21 02:24N 36°50' W 076°16'0 0.0
2018-Jan-21 02:00N 36°50' W 076°16'0 0.0
2018-Jan-20 15:01N 36°50' W 076°16'0 0.1
2018-Jan-20 14:57N 36°50' W 076°16'0 0.0
2018-Jan-20 13:40N 36°50' W 076°16'0 0.1
2018-Jan-20 13:29N 36°50' W 076°16'0 0.0
2018-Jan-20 11:42N 36°50' W 076°16'0 1.3
2018-Jan-20 11:30N 36°50' W 076°16'0 0.6
2018-Jan-20 11:00N 36°50' W 076°17'2 3.3
2018-Jan-20 10:30N 36°51' W 076°19'2 0.0
2018-Jan-19 01:17N 36°52' W 076°20'2 5.8
2018-Jan-19 01:00N 36°51' W 076°19'2 3.9
2018-Jan-19 00:26N 36°50' W 076°16'0 0.1
2018-Jan-18 23:42N 36°50' W 076°16'1 5.0
2018-Jan-18 23:30N 36°51' W 076°17'3 0.8
2018-Jan-18 19:56N 36°53' W 076°20'3 7.0
2018-Jan-18 19:29N 36°50' W 076°17'1 1.2
2018-Jan-18 18:58N 36°50' W 076°16'0 0.0
2018-Jan-18 18:30N 36°50' W 076°16'0 0.0
2018-Jan-18 17:57N 36°50' W 076°16'0 0.0
2018-Jan-18 16:50N 36°50' W 076°16'0 0.0
2018-Jan-18 16:13N 36°50' W 076°16'0 0.0
2018-Jan-18 15:12N 36°50' W 076°16'0 0.0
2018-Jan-18 14:54N 36°50' W 076°16'0 0.2
2018-Jan-18 14:29N 36°50' W 076°16'1 2.5
2018-Jan-18 14:01N 36°51' W 076°18'  
2018-Jan-12 14:59N 40°39' W 074°02'5 6.8
2018-Jan-12 14:18N 40°39' W 074°09'2 6.3
2018-Jan-12 14:00N 40°40' W 074°08'1 1.5
2018-Jan-12 13:30N 40°41' W 074°08'0 0.0
2018-Jan-12 12:59N 40°41' W 074°08'0 0.0
2018-Jan-12 12:30N 40°41' W 074°08'0 0.0
2018-Jan-12 12:01N 40°41' W 074°08'0 0.0
2018-Jan-12 11:30N 40°41' W 074°08'0 0.0
2018-Jan-12 11:00N 40°41' W 074°08'0 0.0
2018-Jan-12 10:30N 40°41' W 074°08'0 0.0
2018-Jan-12 10:00N 40°41' W 074°08'0 0.0
2018-Jan-12 09:30N 40°41' W 074°08'0 0.0
2018-Jan-12 09:00N 40°41' W 074°08'0 0.0
2018-Jan-12 08:30N 40°41' W 074°08'0 0.0
2018-Jan-12 08:00N 40°41' W 074°08'0 0.0
2018-Jan-12 07:30N 40°41' W 074°08'0 0.0
2018-Jan-12 07:00N 40°41' W 074°08'0 0.0
2018-Jan-12 06:30N 40°41' W 074°08'0 0.0
2018-Jan-12 06:00N 40°41' W 074°08'0 0.0
2018-Jan-12 05:30N 40°41' W 074°08'0 0.0
2018-Jan-12 04:59N 40°41' W 074°08'0 0.0
2018-Jan-12 04:30N 40°41' W 074°08'0 0.0
2018-Jan-12 04:00N 40°41' W 074°08'0 0.0
2018-Jan-12 03:30N 40°41' W 074°08'0 0.0
2018-Jan-12 03:00N 40°41' W 074°08'0 0.0
2018-Jan-12 02:30N 40°41' W 074°08'  

Dump ship's entire track history